createdAt,value
2022-10-29T00:00:31.891Z,46.60
2022-10-29T00:01:31.936Z,50.37
2022-10-29T00:02:31.927Z,46.23
2022-10-29T00:03:32.534Z,55.77
2022-10-29T00:04:31.875Z,52.97
2022-10-29T00:05:31.884Z,46.27
2022-10-29T00:06:31.864Z,51.33
2022-10-29T00:07:31.887Z,60.31
2022-10-29T00:08:31.805Z,50.01
2022-10-29T00:09:31.814Z,50.52
2022-10-29T00:10:31.832Z,47.01
2022-10-29T00:11:31.808Z,53.74
2022-10-29T00:12:31.812Z,46.77
2022-10-29T00:13:31.789Z,46.98
2022-10-29T00:14:32.761Z,46.82
2022-10-29T00:15:31.750Z,51.04
2022-10-29T00:16:31.764Z,52.06
2022-10-29T00:17:31.825Z,54.45
2022-10-29T00:18:31.745Z,51.58
2022-10-29T00:19:31.759Z,46.67
2022-10-29T00:20:31.777Z,51.22
2022-10-29T00:21:31.730Z,46.67
2022-10-29T00:22:31.708Z,50.96
2022-10-29T00:23:32.539Z,55.22
2022-10-29T00:24:31.730Z,51.11
2022-10-29T00:25:31.699Z,52.73
2022-10-29T00:26:31.666Z,56.25
2022-10-29T00:27:31.644Z,48.00
2022-10-29T00:28:31.665Z,58.13
2022-10-29T00:29:31.660Z,55.39
2022-10-29T00:30:31.650Z,54.29
2022-10-29T00:31:31.755Z,55.71
2022-10-29T00:32:31.593Z,46.15
2022-10-29T00:33:31.666Z,46.71
2022-10-29T00:34:31.585Z,46.66
2022-10-29T00:35:31.586Z,47.00
2022-10-29T00:36:31.604Z,50.09
2022-10-29T00:37:31.607Z,61.38
2022-10-29T00:38:31.559Z,46.07
2022-10-29T00:39:31.558Z,49.32
2022-10-29T00:40:31.523Z,49.52
2022-10-29T00:41:31.624Z,50.20
2022-10-29T00:42:31.537Z,49.54
2022-10-29T00:43:31.531Z,46.38
2022-10-29T00:44:31.574Z,56.48
2022-10-29T00:45:31.544Z,51.36
2022-10-29T00:46:31.622Z,49.32
2022-10-29T00:47:31.487Z,50.66
2022-10-29T00:48:31.616Z,54.52
2022-10-29T00:49:31.484Z,51.66
2022-10-29T00:50:31.496Z,46.00
2022-10-29T00:51:31.495Z,46.12
2022-10-29T00:52:32.484Z,45.81
2022-10-29T00:53:31.498Z,45.91
2022-10-29T00:54:31.467Z,49.03
2022-10-29T00:55:31.478Z,52.83
2022-10-29T00:56:31.447Z,48.88
2022-10-29T00:57:31.435Z,50.76
2022-10-29T00:58:31.415Z,50.80
2022-10-29T00:59:31.440Z,51.93
2022-10-29T01:00:31.422Z,52.45
2022-10-29T01:01:31.598Z,54.78
2022-10-29T01:03:06.816Z,55.71
2022-10-29T01:03:31.339Z,46.22
2022-10-29T01:04:31.374Z,47.14
2022-10-29T01:05:31.379Z,54.27
2022-10-29T01:06:31.466Z,55.41
2022-10-29T01:07:31.370Z,58.28
2022-10-29T01:08:31.327Z,49.25
2022-10-29T01:09:31.360Z,45.95
2022-10-29T01:10:31.332Z,50.17
2022-10-29T01:11:31.309Z,54.63
2022-10-29T01:12:31.306Z,46.38
2022-10-29T01:13:31.301Z,51.12
2022-10-29T01:14:31.272Z,53.44
2022-10-29T01:15:31.337Z,47.95
2022-10-29T01:16:31.322Z,46.02
2022-10-29T01:17:31.268Z,49.58
2022-10-29T01:18:31.298Z,49.63
2022-10-29T01:19:31.278Z,49.57
2022-10-29T01:20:31.247Z,45.68
2022-10-29T01:21:31.291Z,45.68
2022-10-29T01:22:31.214Z,45.58
2022-10-29T01:23:31.223Z,45.73
2022-10-29T01:24:31.223Z,45.82
2022-10-29T01:25:31.202Z,45.72
2022-10-29T01:26:31.204Z,48.78
2022-10-29T01:27:31.276Z,52.41
2022-10-29T01:29:32.179Z,46.07
2022-10-29T01:30:31.154Z,45.79
2022-10-29T01:31:31.177Z,45.71
2022-10-29T01:32:31.204Z,46.04
2022-10-29T01:33:31.209Z,45.96
2022-10-29T01:34:31.177Z,45.56
2022-10-29T01:35:31.121Z,46.06
2022-10-29T01:36:31.166Z,51.12
2022-10-29T01:37:31.120Z,45.95
2022-10-29T01:39:04.191Z,45.87
2022-10-29T01:39:31.076Z,62.38
2022-10-29T01:41:05.226Z,46.50
2022-10-29T01:41:31.120Z,45.95
2022-10-29T01:43:04.765Z,50.62
2022-10-29T01:44:05.243Z,45.43
2022-10-29T01:44:31.064Z,45.52
2022-10-29T04:03:47.739Z,55.91
2022-10-29T04:04:48.856Z,53.54
2022-10-29T04:05:48.936Z,46.50
2022-10-29T04:06:48.867Z,58.56
2022-10-29T04:07:48.862Z,61.44
2022-10-29T04:08:48.838Z,53.59
2022-10-29T04:09:48.844Z,56.72
2022-10-29T04:10:48.856Z,52.90
2022-10-29T04:11:48.846Z,50.40
2022-10-29T04:12:48.808Z,50.01
2022-10-29T04:13:48.838Z,55.15
2022-10-29T04:14:48.828Z,56.13
2022-10-29T04:15:48.804Z,63.09
2022-10-29T04:16:48.839Z,56.96
2022-10-29T04:17:48.749Z,57.41
2022-10-29T04:18:48.781Z,46.35
2022-10-29T04:19:48.741Z,51.75
2022-10-29T04:27:08.313Z,50.84
2022-10-29T04:28:50.729Z,52.34
2022-10-29T04:29:48.695Z,53.08
2022-10-29T04:30:48.694Z,54.78
2022-10-29T04:31:48.681Z,50.43
2022-10-29T04:32:48.638Z,51.13
2022-10-29T04:33:48.611Z,60.24
2022-10-29T04:34:48.636Z,48.92
2022-10-29T04:35:48.593Z,58.32
2022-10-29T04:36:48.631Z,52.75
2022-10-29T04:37:48.589Z,57.50
2022-10-29T04:38:48.617Z,53.77
2022-10-29T04:39:48.581Z,52.23
2022-10-29T04:40:48.596Z,55.73
2022-10-29T04:41:48.584Z,49.93
2022-10-29T04:42:48.569Z,58.60
2022-10-29T04:43:48.536Z,55.71
2022-10-29T04:44:48.564Z,53.03
2022-10-29T04:45:48.744Z,55.73
2022-10-29T04:46:48.542Z,57.94
2022-10-29T04:47:48.578Z,46.73
2022-10-29T04:51:54.731Z,45.42
2022-10-29T04:53:19.902Z,58.38
2022-10-29T04:53:47.738Z,51.03
2022-10-29T04:54:47.734Z,61.22
2022-10-29T04:55:47.731Z,46.33
2022-10-29T04:56:48.359Z,52.27
2022-10-29T04:57:47.686Z,56.94
2022-10-29T04:58:47.672Z,63.71
2022-10-29T04:59:47.663Z,56.55
2022-10-29T05:00:47.775Z,58.59
2022-10-29T05:01:47.672Z,58.29
2022-10-29T05:02:47.667Z,53.39
2022-10-29T05:03:47.688Z,47.98
2022-10-29T05:04:47.674Z,50.91
2022-10-29T05:05:47.689Z,51.98
2022-10-29T05:06:47.628Z,45.72
2022-10-29T05:07:47.693Z,49.25
2022-10-29T05:08:47.704Z,56.44
2022-10-29T05:09:47.603Z,55.83
2022-10-29T05:10:47.583Z,60.37
2022-10-29T05:11:47.606Z,61.63
2022-10-29T05:12:47.606Z,49.93
2022-10-29T05:13:47.572Z,53.69
2022-10-29T05:14:47.576Z,55.90
2022-10-29T05:15:52.738Z,51.03
2022-10-29T05:16:49.596Z,62.75
2022-10-29T05:17:47.588Z,57.50
2022-10-29T05:18:47.555Z,60.74
2022-10-29T05:19:47.584Z,57.51
2022-10-29T05:20:47.547Z,56.36
2022-10-29T05:21:47.532Z,61.40
2022-10-29T05:22:47.529Z,62.63
2022-10-29T05:23:47.552Z,60.37
2022-10-29T05:24:47.516Z,53.67
2022-10-29T05:25:47.526Z,57.76
2022-10-29T05:26:47.538Z,53.93
2022-10-29T05:27:47.472Z,56.72
2022-10-29T05:28:47.473Z,56.48
2022-10-29T05:29:47.469Z,61.64
2022-10-29T05:30:47.495Z,64.02
2022-10-29T05:31:47.508Z,59.80
2022-10-29T05:32:47.412Z,57.63
2022-10-29T05:33:50.038Z,59.88
2022-10-29T05:34:47.433Z,60.67
2022-10-29T05:35:47.417Z,51.79
2022-10-29T05:36:47.433Z,59.54
2022-10-29T05:37:47.408Z,65.26
2022-10-29T05:38:47.382Z,63.13
2022-10-29T05:39:47.379Z,61.05
2022-10-29T05:40:48.385Z,59.39
2022-10-29T05:41:47.368Z,58.77
2022-10-29T05:42:48.430Z,59.12
2022-10-29T05:43:47.373Z,65.94
2022-10-29T05:44:47.399Z,60.30
2022-10-29T05:45:47.380Z,59.41
2022-10-29T05:46:47.350Z,60.26
2022-10-29T05:47:47.392Z,62.66
2022-10-29T05:48:47.344Z,51.14
2022-10-29T05:49:47.336Z,63.10
2022-10-29T05:50:47.292Z,49.74
2022-10-29T05:51:47.305Z,60.15
2022-10-29T05:52:47.296Z,60.49
2022-10-29T05:53:47.292Z,57.27
2022-10-29T05:54:47.288Z,60.02
2022-10-29T05:55:47.302Z,61.89
2022-10-29T05:56:47.273Z,53.52
2022-10-29T05:57:47.278Z,54.77
2022-10-29T05:58:47.283Z,62.28
2022-10-29T05:59:47.227Z,56.80
2022-10-29T06:00:47.210Z,56.31
2022-10-29T06:01:47.321Z,61.54
2022-10-29T06:02:47.259Z,65.96
2022-10-29T06:03:47.325Z,63.22
2022-10-29T06:04:47.211Z,67.91
2022-10-29T06:05:47.216Z,57.65
2022-10-29T06:06:47.297Z,60.97
2022-10-29T06:07:47.203Z,64.12
2022-10-29T06:08:47.181Z,48.35
2022-10-29T06:09:47.160Z,59.76
2022-10-29T06:10:47.192Z,60.11
2022-10-29T06:11:47.150Z,57.32
2022-10-29T06:12:47.134Z,68.98
2022-10-29T06:13:47.187Z,57.61
2022-10-29T06:14:47.151Z,61.42
2022-10-29T06:15:47.151Z,63.99
2022-10-29T06:16:47.087Z,63.86
2022-10-29T06:17:47.090Z,63.30
2022-10-29T06:18:47.084Z,58.12
2022-10-29T06:19:47.072Z,63.45
2022-10-29T06:20:47.091Z,63.85
2022-10-29T06:21:47.051Z,56.91
2022-10-29T06:22:47.073Z,59.85
2022-10-29T06:23:47.049Z,60.42
2022-10-29T06:24:47.057Z,57.78
2022-10-29T06:25:47.013Z,66.53
2022-10-29T06:26:47.006Z,63.53
2022-10-29T06:27:47.027Z,54.35
2022-10-29T06:28:47.027Z,66.68
2022-10-29T06:29:46.989Z,65.29
2022-10-29T06:30:46.996Z,68.57
2022-10-29T06:31:46.958Z,60.90
2022-10-29T06:32:46.987Z,63.30
2022-10-29T06:33:47.001Z,54.90
2022-10-29T06:34:46.928Z,60.33
2022-10-29T06:35:46.963Z,57.28
2022-10-29T06:36:46.932Z,61.37
2022-10-29T06:37:46.919Z,62.07
2022-10-29T06:38:46.911Z,61.30
2022-10-29T06:39:46.905Z,69.23
2022-10-29T06:40:46.982Z,68.87
2022-10-29T06:41:46.903Z,61.78
2022-10-29T06:42:46.915Z,63.09
2022-10-29T06:43:46.860Z,61.41
2022-10-29T06:44:46.871Z,66.82
2022-10-29T06:45:46.898Z,64.01
2022-10-29T06:46:46.903Z,58.08
2022-10-29T06:47:46.878Z,61.24
2022-10-29T06:48:46.825Z,68.44
2022-10-29T06:49:46.811Z,64.76
2022-10-29T06:50:46.811Z,63.41
2022-10-29T06:51:46.820Z,65.66
2022-10-29T06:52:46.869Z,66.52
2022-10-29T06:53:47.013Z,53.58
2022-10-29T06:54:46.786Z,63.89
2022-10-29T06:55:46.792Z,64.59
2022-10-29T06:56:46.770Z,63.99
2022-10-29T06:57:46.790Z,60.18
2022-10-29T06:58:46.806Z,62.20
2022-10-29T06:59:46.763Z,61.93
2022-10-29T07:01:21.441Z,62.52
2022-10-29T07:01:46.858Z,59.82
2022-10-29T07:02:46.714Z,63.37
2022-10-29T07:03:46.732Z,57.22
2022-10-29T07:04:47.796Z,59.58
2022-10-29T07:05:46.700Z,64.79
2022-10-29T07:06:46.729Z,65.27
2022-10-29T07:07:46.702Z,63.29
2022-10-29T07:08:46.672Z,66.36
2022-10-29T07:09:46.715Z,65.22
2022-10-29T07:10:46.729Z,61.57
2022-10-29T07:11:46.659Z,59.88
2022-10-29T07:12:46.688Z,66.76
2022-10-29T07:13:46.651Z,59.75
2022-10-29T07:14:46.669Z,63.47
2022-10-29T07:15:46.655Z,64.60
2022-10-29T07:16:46.644Z,64.59
2022-10-29T07:17:46.624Z,66.48
2022-10-29T07:18:46.690Z,64.81
2022-10-29T07:19:46.628Z,58.59
2022-10-29T07:20:46.608Z,63.04
2022-10-29T07:21:46.647Z,67.11
2022-10-29T07:22:46.595Z,63.77
2022-10-29T07:23:46.556Z,67.02
2022-10-29T07:24:46.592Z,67.95
2022-10-29T07:25:46.626Z,62.55
2022-10-29T07:26:46.589Z,66.15
2022-10-29T07:27:47.661Z,68.04
2022-10-29T07:28:46.544Z,63.28
2022-10-29T07:29:46.564Z,64.88
2022-10-29T07:30:46.502Z,64.16
2022-10-29T07:31:46.526Z,64.69
2022-10-29T07:33:21.006Z,64.49
2022-10-29T07:33:46.483Z,57.30
2022-10-29T07:34:46.497Z,63.55
2022-10-29T07:35:46.528Z,69.59
2022-10-29T07:36:46.497Z,65.75
2022-10-29T07:37:46.468Z,61.63
2022-10-29T07:38:46.454Z,61.87
2022-10-29T07:39:46.461Z,59.75
2022-10-29T07:40:46.493Z,64.51
2022-10-29T07:41:46.491Z,68.04
2022-10-29T07:42:46.433Z,65.35
2022-10-29T07:43:46.434Z,61.53
2022-10-29T07:44:46.418Z,62.74
2022-10-29T07:45:46.423Z,69.01
2022-10-29T07:46:46.470Z,64.84
2022-10-29T07:47:46.408Z,65.07
2022-10-29T07:48:46.377Z,70.01
2022-10-29T07:49:46.415Z,63.16
2022-10-29T07:50:46.363Z,69.82
2022-10-29T07:51:46.431Z,62.41
2022-10-29T07:52:46.354Z,67.54
2022-10-29T07:53:46.361Z,65.37
2022-10-29T07:54:46.315Z,64.80
2022-10-29T07:55:46.298Z,66.96
2022-10-29T07:56:47.772Z,61.50
2022-10-29T07:57:46.314Z,56.61
2022-10-29T07:58:46.352Z,67.19
2022-10-29T07:59:46.326Z,65.29
2022-10-29T08:00:46.347Z,60.96
2022-10-29T08:01:46.382Z,59.97
2022-10-29T08:02:46.286Z,67.07
2022-10-29T08:03:46.352Z,65.20
2022-10-29T08:04:46.300Z,57.10
2022-10-29T08:05:46.245Z,68.59
2022-10-29T08:06:46.271Z,65.09
2022-10-29T08:07:46.261Z,66.37
2022-10-29T08:08:46.302Z,67.17
2022-10-29T08:09:46.277Z,68.05
2022-10-29T08:10:46.245Z,64.65
2022-10-29T08:12:46.254Z,65.22
2022-10-29T08:13:46.183Z,60.87
2022-10-29T08:15:19.456Z,65.27
2022-10-29T08:16:20.425Z,64.22
2022-10-29T08:16:46.175Z,61.34
2022-10-29T08:17:46.180Z,65.14
2022-10-29T08:18:46.147Z,67.99
2022-10-29T08:19:46.096Z,70.66
2022-10-29T08:20:47.161Z,67.99
2022-10-29T08:21:47.115Z,69.20
2022-10-29T08:22:46.139Z,63.16
2022-10-29T08:23:46.132Z,65.63
2022-10-29T08:24:46.114Z,61.54
2022-10-29T08:25:46.153Z,64.08
2022-10-29T08:26:46.086Z,61.82
2022-10-29T08:27:46.137Z,67.56
2022-10-29T08:28:46.074Z,65.92
2022-10-29T08:29:46.049Z,66.23
2022-10-29T08:30:46.066Z,65.90
2022-10-29T08:31:46.105Z,65.33
2022-10-29T08:32:46.031Z,64.87
2022-10-29T08:33:46.054Z,58.48
2022-10-29T08:34:46.050Z,65.82
2022-10-29T08:35:45.999Z,66.28
2022-10-29T08:36:45.982Z,68.59
2022-10-29T08:37:46.018Z,67.15
2022-10-29T08:38:46.013Z,66.66
2022-10-29T08:39:45.963Z,66.79
2022-10-29T08:40:45.989Z,68.03
2022-10-29T08:41:45.978Z,65.53
2022-10-29T08:42:46.003Z,64.22
2022-10-29T08:44:18.981Z,66.67
2022-10-29T08:44:45.941Z,68.61
2022-10-29T08:45:45.925Z,66.01
2022-10-29T08:46:45.929Z,65.76
2022-10-29T08:47:45.915Z,56.36
2022-10-29T08:48:45.957Z,69.16
2022-10-29T08:49:45.933Z,68.80
2022-10-29T08:50:45.875Z,67.65
2022-10-29T08:51:45.878Z,65.14
2022-10-29T08:52:58.669Z,69.01
2022-10-29T08:54:03.992Z,64.50
2022-10-29T08:54:47.899Z,68.38
2022-10-29T08:55:46.891Z,64.71
2022-10-29T08:56:45.857Z,67.98
2022-10-29T08:57:45.888Z,65.49
2022-10-29T08:58:45.860Z,66.44
2022-10-29T08:59:45.878Z,66.85
2022-10-29T09:00:45.923Z,63.30
2022-10-29T09:01:46.039Z,57.40
2022-10-29T09:02:45.851Z,65.19
2022-10-29T09:03:45.781Z,64.90
2022-10-29T09:04:45.877Z,68.13
2022-10-29T09:05:45.807Z,63.46
2022-10-29T09:06:45.793Z,69.01
2022-10-29T09:07:45.783Z,62.47
2022-10-29T09:08:45.818Z,60.16
2022-10-29T09:09:45.825Z,68.85
2022-10-29T09:10:45.736Z,66.93
2022-10-29T09:11:45.731Z,65.91
2022-10-29T09:12:45.768Z,70.32
2022-10-29T09:13:45.733Z,72.02
2022-10-29T09:14:45.791Z,66.61
2022-10-29T09:15:45.868Z,67.27
2022-10-29T09:16:46.692Z,63.07
2022-10-29T09:17:45.745Z,61.49
2022-10-29T09:18:45.690Z,67.68
2022-10-29T09:19:45.723Z,67.86
2022-10-29T09:20:45.652Z,63.32
2022-10-29T09:21:45.676Z,65.93
2022-10-29T09:22:45.669Z,63.75
2022-10-29T09:23:45.705Z,66.54
2022-10-29T09:24:45.744Z,66.24
2022-10-29T09:25:45.714Z,67.32
2022-10-29T09:26:45.679Z,65.54
2022-10-29T09:27:45.646Z,68.10
2022-10-29T09:28:45.638Z,64.24
2022-10-29T09:29:45.594Z,65.81
2022-10-29T09:30:45.577Z,63.62
2022-10-29T09:31:45.589Z,67.68
2022-10-29T09:32:45.650Z,65.30
2022-10-29T09:33:45.640Z,65.72
2022-10-29T09:34:45.596Z,63.84
2022-10-29T09:35:45.578Z,66.62
2022-10-29T09:36:45.525Z,66.39
2022-10-29T09:37:45.566Z,64.60
2022-10-29T09:38:45.602Z,66.55
2022-10-29T09:39:45.555Z,63.12
2022-10-29T09:40:45.587Z,66.18
2022-10-29T09:41:45.623Z,66.31
2022-10-29T09:42:45.529Z,68.03
2022-10-29T09:43:45.498Z,61.60
2022-10-29T09:44:45.504Z,65.63
2022-10-29T09:45:45.479Z,67.47
2022-10-29T09:46:45.495Z,63.58
2022-10-29T09:47:45.494Z,64.84
2022-10-29T09:48:45.421Z,67.80
2022-10-29T09:49:45.538Z,61.14
2022-10-29T09:50:45.453Z,66.42
2022-10-29T09:51:45.458Z,66.02
2022-10-29T09:52:45.457Z,62.19
2022-10-29T09:53:45.426Z,66.95
2022-10-29T09:54:45.428Z,68.82
2022-10-29T09:55:45.452Z,65.71
2022-10-29T09:56:45.394Z,64.18
2022-10-29T09:57:45.415Z,65.93
2022-10-29T09:58:45.449Z,67.79
2022-10-29T09:59:45.373Z,64.55
2022-10-29T10:00:45.439Z,66.93
2022-10-29T10:01:45.411Z,68.56
2022-10-29T10:02:45.468Z,66.44
2022-10-29T10:03:45.990Z,65.85
2022-10-29T10:04:45.298Z,63.41
2022-10-29T10:05:45.299Z,68.47
2022-10-29T10:06:45.326Z,68.88
2022-10-29T10:07:45.340Z,65.58
2022-10-29T10:08:45.315Z,66.67
2022-10-29T10:09:45.266Z,67.80
2022-10-29T10:10:45.325Z,69.54
2022-10-29T10:11:45.325Z,65.21
2022-10-29T10:12:45.296Z,68.97
2022-10-29T10:13:45.290Z,67.04
2022-10-29T10:14:45.252Z,65.85
2022-10-29T10:15:45.293Z,69.00
2022-10-29T10:16:45.232Z,63.24
2022-10-29T10:17:45.264Z,66.46
2022-10-29T10:18:45.244Z,61.98
2022-10-29T10:19:45.231Z,66.81
2022-10-29T10:20:45.212Z,63.72
2022-10-29T10:21:45.233Z,67.02
2022-10-29T10:22:45.218Z,66.85
2022-10-29T10:23:45.215Z,64.13
2022-10-29T10:24:45.229Z,65.29
2022-10-29T10:25:45.178Z,68.39
2022-10-29T10:26:45.168Z,67.85
2022-10-29T10:27:45.653Z,65.19
2022-10-29T10:28:45.154Z,66.18
2022-10-29T10:29:45.161Z,63.81
2022-10-29T10:30:45.131Z,66.66
2022-10-29T10:31:45.156Z,64.80
2022-10-29T10:32:45.140Z,60.04
2022-10-29T10:33:45.136Z,59.43
2022-10-29T10:34:45.084Z,65.52
2022-10-29T10:35:45.081Z,61.59
2022-10-29T10:36:45.092Z,66.92
2022-10-29T10:37:45.103Z,66.75
2022-10-29T10:38:45.054Z,63.04
2022-10-29T10:39:45.031Z,59.63
2022-10-29T10:40:45.065Z,66.20
2022-10-29T10:41:45.064Z,61.68
2022-10-29T10:42:45.064Z,67.05
2022-10-29T10:43:45.077Z,65.79
2022-10-29T10:44:46.037Z,68.71
2022-10-29T10:45:45.069Z,63.14
2022-10-29T10:46:45.059Z,66.85
2022-10-29T10:47:45.069Z,65.32
2022-10-29T10:48:45.040Z,67.58
2022-10-29T10:50:18.426Z,65.78
2022-10-29T10:50:45.033Z,69.06
2022-10-29T10:51:46.058Z,66.42
2022-10-29T10:52:45.062Z,66.95
2022-10-29T10:53:45.012Z,69.10
2022-10-29T10:54:45.112Z,61.92
2022-10-29T10:55:44.924Z,68.00
2022-10-29T10:56:44.980Z,64.69
2022-10-29T10:57:44.959Z,63.45
2022-10-29T10:58:45.068Z,65.35
2022-10-29T10:59:44.928Z,66.48
2022-10-29T11:00:46.063Z,64.40
2022-10-29T11:01:45.028Z,64.86
2022-10-29T11:02:44.908Z,64.50
2022-10-29T11:03:44.889Z,66.59
2022-10-29T11:04:45.903Z,61.78
2022-10-29T11:05:45.899Z,66.44
2022-10-29T11:06:44.824Z,63.59
2022-10-29T11:07:44.838Z,65.42
2022-10-29T11:08:44.796Z,66.33
2022-10-29T11:09:44.842Z,64.67
2022-10-29T11:10:44.821Z,70.34
2022-10-29T11:11:44.797Z,67.53
2022-10-29T11:12:44.868Z,67.84
2022-10-29T11:13:44.807Z,63.32
2022-10-29T11:14:44.843Z,66.48
2022-10-29T11:15:44.827Z,64.81
2022-10-29T11:16:44.805Z,65.95
2022-10-29T11:17:46.158Z,63.79
2022-10-29T11:18:44.839Z,64.72
2022-10-29T11:19:44.842Z,64.07
2022-10-29T11:20:44.736Z,63.62
2022-10-29T11:21:44.734Z,60.94
2022-10-29T11:22:44.737Z,62.80
2022-10-29T11:23:44.732Z,65.53
2022-10-29T11:24:44.747Z,64.53
2022-10-29T11:25:44.706Z,66.49
2022-10-29T11:26:44.690Z,64.77
2022-10-29T11:27:44.746Z,63.31
2022-10-29T11:28:44.683Z,65.65
2022-10-29T11:29:49.057Z,63.72
2022-10-29T11:30:46.748Z,64.32
2022-10-29T11:31:44.675Z,66.70
2022-10-29T11:32:44.666Z,63.48
2022-10-29T11:33:44.705Z,57.57
2022-10-29T11:34:44.650Z,60.44
2022-10-29T11:35:44.684Z,66.45
2022-10-29T11:36:44.645Z,67.01
2022-10-29T11:37:44.648Z,61.78
2022-10-29T11:38:44.598Z,61.30
2022-10-29T11:39:44.668Z,62.78
2022-10-29T11:40:44.667Z,68.04
2022-10-29T11:41:44.648Z,62.68
2022-10-29T11:42:44.579Z,63.69
2022-10-29T11:43:45.215Z,60.05
2022-10-29T11:44:45.128Z,64.99
2022-10-29T11:45:45.172Z,67.51
2022-10-29T11:46:44.545Z,64.59
2022-10-29T11:47:44.598Z,66.00
2022-10-29T11:48:44.561Z,67.17
2022-10-29T11:49:44.574Z,67.27
2022-10-29T11:50:44.539Z,63.59
2022-10-29T11:51:44.518Z,64.49
2022-10-29T11:52:44.581Z,62.51
2022-10-29T11:53:44.571Z,67.51
2022-10-29T11:54:44.558Z,65.48
2022-10-29T11:55:44.525Z,63.88
2022-10-29T11:56:44.502Z,64.87
2022-10-29T11:57:44.475Z,73.09
2022-10-29T11:58:44.428Z,65.34
2022-10-29T12:00:18.783Z,69.08
2022-10-29T12:00:44.435Z,65.01
2022-10-29T12:01:44.494Z,60.98
2022-10-29T12:02:44.492Z,64.28
2022-10-29T12:03:44.426Z,64.30
2022-10-29T12:04:44.402Z,64.89
2022-10-29T12:05:44.412Z,68.45
2022-10-29T12:06:44.379Z,65.88
2022-10-29T12:07:44.369Z,61.90
2022-10-29T12:08:44.339Z,64.77
2022-10-29T12:09:44.329Z,62.71
2022-10-29T12:10:44.354Z,65.47
2022-10-29T12:11:44.316Z,64.56
2022-10-29T12:12:44.360Z,64.39
2022-10-29T12:14:18.743Z,64.61
2022-10-29T12:14:44.988Z,68.34
2022-10-29T12:15:44.296Z,66.15
2022-10-29T12:16:44.307Z,62.92
2022-10-29T12:17:45.268Z,62.80
2022-10-29T12:18:44.287Z,67.29
2022-10-29T12:19:44.264Z,58.62
2022-10-29T12:20:44.416Z,65.98
2022-10-29T12:21:44.303Z,66.08
2022-10-29T12:22:44.288Z,64.96
2022-10-29T12:23:44.285Z,68.75
2022-10-29T12:24:44.315Z,67.39
2022-10-29T12:25:44.258Z,65.34
2022-10-29T12:26:44.241Z,59.20
2022-10-29T12:27:44.219Z,62.05
2022-10-29T12:28:44.319Z,63.82
2022-10-29T12:29:44.993Z,63.87
2022-10-29T12:30:44.200Z,61.46
2022-10-29T12:31:44.241Z,68.51
2022-10-29T12:32:44.211Z,68.01
2022-10-29T12:33:44.173Z,66.51
2022-10-29T12:34:44.249Z,69.15
2022-10-29T12:35:44.163Z,67.90
2022-10-29T12:36:44.204Z,68.53
2022-10-29T12:37:44.161Z,67.61
2022-10-29T12:38:44.162Z,66.88
2022-10-29T12:39:44.114Z,65.67
2022-10-29T12:40:44.122Z,64.82
2022-10-29T12:41:44.190Z,68.90
2022-10-29T12:42:45.163Z,62.53
2022-10-29T12:43:44.191Z,69.89
2022-10-29T12:44:45.298Z,66.16
2022-10-29T12:46:14.400Z,68.46
2022-10-29T12:46:46.146Z,68.04
2022-10-29T12:47:44.096Z,66.27
2022-10-29T12:48:44.058Z,67.79
2022-10-29T12:49:44.673Z,65.83
2022-10-29T12:50:44.037Z,63.63
2022-10-29T12:51:44.105Z,68.45
2022-10-29T12:52:44.034Z,68.13
2022-10-29T12:53:44.012Z,64.83
2022-10-29T12:54:44.061Z,67.73
2022-10-29T12:55:43.985Z,65.83
2022-10-29T12:56:47.752Z,68.03
2022-10-29T12:57:45.046Z,65.22
2022-10-29T12:58:43.995Z,63.49
2022-10-29T12:59:44.014Z,61.22
2022-10-29T13:00:43.977Z,64.39
2022-10-29T13:02:09.860Z,67.59
2022-10-29T13:02:46.116Z,67.74
2022-10-29T13:03:43.927Z,67.18
2022-10-29T13:04:43.929Z,66.36
2022-10-29T13:05:43.945Z,66.13
2022-10-29T13:06:43.971Z,68.18
2022-10-29T13:07:43.962Z,66.41
2022-10-29T13:08:43.920Z,66.31
2022-10-29T13:09:48.185Z,65.13
2022-10-29T13:10:44.873Z,63.71
2022-10-29T13:11:43.920Z,61.15
2022-10-29T13:12:43.948Z,69.34
2022-10-29T13:13:43.882Z,62.87
2022-10-29T13:14:43.911Z,67.89
2022-10-29T13:15:43.842Z,69.30
2022-10-29T13:16:43.856Z,68.54
2022-10-29T13:17:43.831Z,65.92
2022-10-29T13:18:44.513Z,65.07
2022-10-29T13:19:43.906Z,66.47
2022-10-29T13:20:43.861Z,63.17
2022-10-29T13:21:43.845Z,66.53
2022-10-29T13:23:45.700Z,70.02
2022-10-29T13:24:43.782Z,66.96
2022-10-29T13:25:43.800Z,60.10
2022-10-29T13:26:43.744Z,60.85
2022-10-29T13:27:43.763Z,65.71
2022-10-29T13:28:44.849Z,64.48
2022-10-29T13:29:43.790Z,67.57
2022-10-29T13:30:43.756Z,64.31
2022-10-29T13:31:43.794Z,66.07
2022-10-29T13:32:43.773Z,61.31
2022-10-29T13:33:43.790Z,59.51
2022-10-29T13:34:43.727Z,64.56
2022-10-29T13:35:43.725Z,64.89
2022-10-29T13:36:43.766Z,65.47
2022-10-29T13:37:43.699Z,63.22
2022-10-29T13:38:57.872Z,63.23
2022-10-29T13:39:45.686Z,58.68
2022-10-29T13:40:43.701Z,65.08
2022-10-29T13:41:44.071Z,64.98
2022-10-29T13:42:44.516Z,65.90
2022-10-29T13:43:43.651Z,64.72
2022-10-29T13:44:43.657Z,64.82
2022-10-29T13:45:43.669Z,58.94
2022-10-29T13:46:45.611Z,64.76
2022-10-29T13:47:44.606Z,75.24
2022-10-29T13:48:43.624Z,75.36
2022-10-29T13:49:43.641Z,75.09
2022-10-29T13:50:43.602Z,74.36
2022-10-29T13:51:43.682Z,74.96
2022-10-29T13:52:43.622Z,67.73
2022-10-29T13:53:43.603Z,61.27
2022-10-29T13:54:43.575Z,67.31
2022-10-29T13:55:43.609Z,61.14
2022-10-29T13:56:43.618Z,63.22
2022-10-29T13:57:43.547Z,66.15
2022-10-29T13:58:44.257Z,64.14
2022-10-29T13:59:43.603Z,63.33
2022-10-29T14:00:43.754Z,67.11
2022-10-29T14:01:43.640Z,62.15
2022-10-29T14:02:43.681Z,59.49
2022-10-29T14:03:43.528Z,64.22
2022-10-29T14:04:43.478Z,64.72
2022-10-29T14:06:16.756Z,59.17
2022-10-29T14:06:43.807Z,64.58
2022-10-29T14:07:43.512Z,59.75
2022-10-29T14:08:43.444Z,61.91
2022-10-29T14:09:43.449Z,63.82
2022-10-29T14:13:41.304Z,66.20
2022-10-29T14:14:42.743Z,66.71
2022-10-29T14:15:43.026Z,62.41
2022-10-29T14:16:41.986Z,65.50
2022-10-29T14:17:41.989Z,64.30
2022-10-29T14:18:41.998Z,63.48
2022-10-29T14:20:15.490Z,61.24
2022-10-29T14:20:41.989Z,63.54
2022-10-29T14:21:42.275Z,65.86
2022-10-29T14:22:41.944Z,63.22
2022-10-29T14:23:41.959Z,63.54
2022-10-29T14:24:42.004Z,65.97
2022-10-29T14:25:41.932Z,66.68
2022-10-29T14:26:41.959Z,64.97
2022-10-29T14:27:42.216Z,67.06
2022-10-29T14:28:41.913Z,63.14
2022-10-29T14:29:42.752Z,61.79
2022-10-29T14:30:41.907Z,58.13
2022-10-29T14:31:41.821Z,66.00
2022-10-29T14:32:41.910Z,65.44
2022-10-29T14:33:41.866Z,62.96
2022-10-29T14:34:41.910Z,63.42
2022-10-29T14:35:41.814Z,63.37
2022-10-29T14:36:41.867Z,62.77
2022-10-29T14:37:41.822Z,64.42
2022-10-29T14:38:41.830Z,64.94
2022-10-29T14:39:56.985Z,64.08
2022-10-29T14:40:43.799Z,57.46
2022-10-29T14:41:41.804Z,61.85
2022-10-29T14:42:41.798Z,62.59
2022-10-29T14:43:41.803Z,62.04
2022-10-29T14:44:41.768Z,66.54
2022-10-29T14:46:17.712Z,65.55
2022-10-29T14:47:10.950Z,68.43
2022-10-29T14:48:15.513Z,58.71
2022-10-29T14:48:41.795Z,65.79
2022-10-29T14:49:41.762Z,60.96
2022-10-29T14:50:41.775Z,63.37
2022-10-29T14:51:41.775Z,62.19
2022-10-29T14:53:14.446Z,63.84
2022-10-29T14:53:41.926Z,60.13
2022-10-29T14:54:42.548Z,65.08
2022-10-29T14:55:42.585Z,64.43
2022-10-29T14:56:41.681Z,65.54
2022-10-29T14:58:14.334Z,66.08
2022-10-29T14:58:41.671Z,63.90
2022-10-29T14:59:41.798Z,67.11
2022-10-29T15:00:41.723Z,64.59
2022-10-29T15:01:41.794Z,67.50
2022-10-29T15:02:41.696Z,62.82
2022-10-29T15:03:41.718Z,66.95
2022-10-29T15:04:41.623Z,59.72
2022-10-29T15:05:41.627Z,63.62
2022-10-29T15:06:41.625Z,65.37
2022-10-29T15:07:41.584Z,63.05
2022-10-29T15:08:41.627Z,64.58
2022-10-29T15:09:42.376Z,60.17
2022-10-29T15:10:41.602Z,64.17
2022-10-29T15:11:41.557Z,59.23
2022-10-29T15:12:41.568Z,62.45
2022-10-29T15:13:41.671Z,59.06
2022-10-29T15:14:42.213Z,60.26
2022-10-29T15:15:41.545Z,67.69
2022-10-29T15:16:42.526Z,62.47
2022-10-29T15:17:42.618Z,60.78
2022-10-29T15:18:41.525Z,60.54
2022-10-29T15:19:41.553Z,68.47
2022-10-29T15:20:41.539Z,62.58
2022-10-29T15:21:41.479Z,63.92
2022-10-29T15:22:41.558Z,65.12
2022-10-29T15:23:41.522Z,64.35
2022-10-29T15:24:41.544Z,63.18
2022-10-29T15:25:41.519Z,60.62
2022-10-29T15:26:41.463Z,66.98